Share

Alliance, NE

7:15 PM MDT on April 23, 2014 (GMT -0600)
Alliance Municipal (KAIA) Elev 3930 ft | 42.06 °N, 102.80 °W | Change Station
Active Advisory: Fire Weather Watch

Current weather conditions updated 22 minutes ago

Overcast
Overcast
57 °F
Feels Like 57 °F
N
6
Wind Variable Wind from North
Sunrise 5:58 AM
Sunset 7:41 PM
Moon Waning Crescent

Tomorrow is forecast to be nearly the same temperature as today.

Pressure 29.65 in
Visibility 10.0 miles
Clouds Overcast 9500 ft
Dew Point 30 °F
Humidity 36%
Rainfall 0.00 in
Snow Depth Not available.
UV 0 out of 16
Pollen 11.20 out of 12
Air Quality Not available.
Flu Activity Sporadic
METAR KAIA 240053Z AUTO 36005KT 10SM OVC095 14/M01 A2970 RMK AO2 SLP039 T01391011 $

More Conditions Fewer Conditions

Pressure 29.65 in
Visibility 10.0 miles
Clouds Overcast 9500 ft
Dew Point 30 °F
Humidity 36%
Rainfall 0.00 in
Snow Depth Not available.
UV 0 out of 16
Pollen 11.20 out of 12
Air Quality Not available.
Flu Activity Sporadic
METAR KAIA 240053Z AUTO 36005KT 10SM OVC095 14/M01 A2970 RMK AO2 SLP039 T01391011 $

More Conditions Fewer Conditions

10-Day Weather Forecast

Almanac

Astronomy

Apr. 23, 2014 Rise Set
Actual Time 5:58 AM MDT 7:41 PM MDT
Civil Twilight 5:28 AM MDT 8:11 PM MDT
Nautical Twilight 4:52 AM MDT 8:47 PM MDT
Astronomical Twilight 4:14 AM MDT 9:26 PM MDT
Moon 2:38 AM MDT (4/23) 1:46 PM MDT (4/23)
Length of Visible Light 14h 42m
Length of Day
13h 43m
Tomorrow will be 2m 35s longer.
Waning Crescent, 31% of the Moon is Illuminated
Today
Waning Crescent
Apr 29
New
May 6
First Quarter
May 14
Full
May 21
Last Quarter

Today's Extremes

State Highs State Lows

Community

  • Nestled In
    Nestled In
  • Stunning Sunrise
    Stunning Sunrise
  • spring flowers
    spring flowers
  • Earth Day Spectrum Ove' Blue
    Earth Day Spectrum Ove' Blue
  • BARN B&W
    BARN B&W

WunderPhotos

Upload Photos

1,704,485 photos uploaded!

Nearby

Snow Depth

Station Depth Elevation
No new snow has been reported.

Coastal Water Temperatures

Place Temperature
No Stations Reporting

Earthquake Activity

City Distance Mag. Time & Date
No recent earthquake activity has been reported nearby.
Minimum magnitude displayed is 2.5.

Nearby Weather Stations

Station Location Temp. Dew Point Humidity Wind Precip. Elev Updated Type
Panhandle Coop/Box Butte Co, Alliance, NE 56.2 °F 33 °F 41% WNW  at  3.0 mph 0.00 in / hr 4140 ft 7:07 PM MDT Normal
Wayne Rd., Alliance, NE 56.8 °F 29 °F 35% NE  at  2.0 mph 0.00 in / hr 4091 ft 7:00 PM MDT Normal

Show More Stations Show Fewer Stations

What do you think?

We're not finished. Please let us know what you like, what you don't like, and what you are still missing.